sensor_id;sensor_type;location;lat;lon;timestamp;P1;durP1;ratioP1;P2;durP2;ratioP2
5175;SDS011;2607;50.934;6.934;2022-07-22T00:01:09;9.77;;;7.47;;
5175;SDS011;2607;50.934;6.934;2022-07-22T00:03:35;8.80;;;7.03;;
5175;SDS011;2607;50.934;6.934;2022-07-22T00:06:01;12.53;;;8.10;;
5175;SDS011;2607;50.934;6.934;2022-07-22T00:08:26;7.77;;;7.13;;
5175;SDS011;2607;50.934;6.934;2022-07-22T00:10:52;9.23;;;7.70;;
5175;SDS011;2607;50.934;6.934;2022-07-22T00:13:18;10.63;;;6.97;;
5175;SDS011;2607;50.934;6.934;2022-07-22T00:15:43;12.07;;;6.83;;
5175;SDS011;2607;50.934;6.934;2022-07-22T00:18:09;10.23;;;6.33;;
5175;SDS011;2607;50.934;6.934;2022-07-22T00:20:35;13.80;;;6.30;;
5175;SDS011;2607;50.934;6.934;2022-07-22T00:23:00;16.63;;;6.43;;
5175;SDS011;2607;50.934;6.934;2022-07-22T00:25:26;9.03;;;6.00;;
5175;SDS011;2607;50.934;6.934;2022-07-22T00:27:53;7.57;;;5.60;;
5175;SDS011;2607;50.934;6.934;2022-07-22T00:30:19;7.20;;;5.30;;
5175;SDS011;2607;50.934;6.934;2022-07-22T00:32:44;6.50;;;5.10;;
5175;SDS011;2607;50.934;6.934;2022-07-22T00:35:10;9.60;;;4.90;;
5175;SDS011;2607;50.934;6.934;2022-07-22T00:37:36;5.53;;;4.93;;
5175;SDS011;2607;50.934;6.934;2022-07-22T00:40:01;7.93;;;4.77;;
5175;SDS011;2607;50.934;6.934;2022-07-22T00:42:27;13.77;;;5.90;;
5175;SDS011;2607;50.934;6.934;2022-07-22T00:44:53;9.30;;;5.03;;
5175;SDS011;2607;50.934;6.934;2022-07-22T00:47:19;7.63;;;5.17;;
5175;SDS011;2607;50.934;6.934;2022-07-22T00:49:44;12.03;;;6.10;;
5175;SDS011;2607;50.934;6.934;2022-07-22T00:52:10;8.00;;;5.07;;
5175;SDS011;2607;50.934;6.934;2022-07-22T00:54:36;8.20;;;5.83;;
5175;SDS011;2607;50.934;6.934;2022-07-22T00:57:02;9.53;;;5.47;;
5175;SDS011;2607;50.934;6.934;2022-07-22T00:59:28;12.13;;;5.23;;
5175;SDS011;2607;50.934;6.934;2022-07-22T01:01:54;14.40;;;5.17;;
5175;SDS011;2607;50.934;6.934;2022-07-22T01:04:19;13.00;;;6.03;;
5175;SDS011;2607;50.934;6.934;2022-07-22T01:06:45;12.90;;;5.87;;
5175;SDS011;2607;50.934;6.934;2022-07-22T01:09:11;7.20;;;5.00;;
5175;SDS011;2607;50.934;6.934;2022-07-22T01:11:38;6.83;;;4.73;;
5175;SDS011;2607;50.934;6.934;2022-07-22T01:14:04;8.77;;;5.17;;
5175;SDS011;2607;50.934;6.934;2022-07-22T01:16:29;13.17;;;5.60;;
5175;SDS011;2607;50.934;6.934;2022-07-22T01:18:55;7.80;;;4.87;;
5175;SDS011;2607;50.934;6.934;2022-07-22T01:21:21;12.23;;;5.67;;
5175;SDS011;2607;50.934;6.934;2022-07-22T01:23:47;8.83;;;5.53;;
5175;SDS011;2607;50.934;6.934;2022-07-22T01:26:13;11.20;;;5.53;;
5175;SDS011;2607;50.934;6.934;2022-07-22T01:28:39;13.27;;;6.20;;
5175;SDS011;2607;50.934;6.934;2022-07-22T01:31:05;9.47;;;6.00;;
5175;SDS011;2607;50.934;6.934;2022-07-22T01:33:30;8.53;;;6.00;;
5175;SDS011;2607;50.934;6.934;2022-07-22T01:35:57;8.93;;;5.67;;
5175;SDS011;2607;50.934;6.934;2022-07-22T01:38:23;7.80;;;6.27;;
5175;SDS011;2607;50.934;6.934;2022-07-22T01:40:49;7.73;;;5.80;;
5175;SDS011;2607;50.934;6.934;2022-07-22T01:43:14;9.23;;;6.23;;
5175;SDS011;2607;50.934;6.934;2022-07-22T01:45:43;8.47;;;6.43;;
5175;SDS011;2607;50.934;6.934;2022-07-22T01:48:09;8.93;;;6.53;;
5175;SDS011;2607;50.934;6.934;2022-07-22T01:50:35;16.83;;;6.60;;
5175;SDS011;2607;50.934;6.934;2022-07-22T01:53:01;12.93;;;7.03;;
5175;SDS011;2607;50.934;6.934;2022-07-22T01:55:27;15.63;;;5.83;;
5175;SDS011;2607;50.934;6.934;2022-07-22T01:57:52;7.40;;;5.93;;
5175;SDS011;2607;50.934;6.934;2022-07-22T02:00:18;11.53;;;6.90;;
5175;SDS011;2607;50.934;6.934;2022-07-22T02:02:44;10.23;;;6.70;;
5175;SDS011;2607;50.934;6.934;2022-07-22T02:05:10;11.17;;;6.60;;
5175;SDS011;2607;50.934;6.934;2022-07-22T02:07:36;10.63;;;6.90;;
5175;SDS011;2607;50.934;6.934;2022-07-22T02:10:02;10.90;;;6.80;;
5175;SDS011;2607;50.934;6.934;2022-07-22T02:12:29;17.87;;;7.27;;
5175;SDS011;2607;50.934;6.934;2022-07-22T02:14:55;10.10;;;7.10;;
5175;SDS011;2607;50.934;6.934;2022-07-22T02:17:20;11.13;;;7.07;;
5175;SDS011;2607;50.934;6.934;2022-07-22T02:19:46;9.80;;;7.13;;
5175;SDS011;2607;50.934;6.934;2022-07-22T02:22:12;10.97;;;6.87;;
5175;SDS011;2607;50.934;6.934;2022-07-22T02:24:37;9.10;;;6.37;;
5175;SDS011;2607;50.934;6.934;2022-07-22T02:27:03;11.23;;;7.60;;
5175;SDS011;2607;50.934;6.934;2022-07-22T02:29:29;12.80;;;7.17;;
5175;SDS011;2607;50.934;6.934;2022-07-22T02:31:55;16.30;;;7.60;;
5175;SDS011;2607;50.934;6.934;2022-07-22T02:34:20;8.80;;;6.10;;
5175;SDS011;2607;50.934;6.934;2022-07-22T02:36:46;17.67;;;8.40;;
5175;SDS011;2607;50.934;6.934;2022-07-22T02:39:12;12.70;;;7.83;;
5175;SDS011;2607;50.934;6.934;2022-07-22T02:41:37;13.27;;;8.57;;
5175;SDS011;2607;50.934;6.934;2022-07-22T02:44:03;13.50;;;7.90;;
5175;SDS011;2607;50.934;6.934;2022-07-22T02:46:29;10.00;;;7.40;;
5175;SDS011;2607;50.934;6.934;2022-07-22T02:48:55;9.60;;;7.80;;
5175;SDS011;2607;50.934;6.934;2022-07-22T02:51:21;12.97;;;7.90;;
5175;SDS011;2607;50.934;6.934;2022-07-22T02:53:46;10.80;;;7.27;;
5175;SDS011;2607;50.934;6.934;2022-07-22T02:56:12;11.03;;;7.23;;
5175;SDS011;2607;50.934;6.934;2022-07-22T02:58:38;11.40;;;7.40;;
5175;SDS011;2607;50.934;6.934;2022-07-22T03:01:04;9.20;;;8.10;;
5175;SDS011;2607;50.934;6.934;2022-07-22T03:03:30;19.10;;;7.90;;
5175;SDS011;2607;50.934;6.934;2022-07-22T03:05:56;10.97;;;8.30;;
5175;SDS011;2607;50.934;6.934;2022-07-22T03:08:21;14.70;;;8.70;;
5175;SDS011;2607;50.934;6.934;2022-07-22T03:10:47;11.20;;;8.27;;
5175;SDS011;2607;50.934;6.934;2022-07-22T03:13:12;15.20;;;9.03;;
5175;SDS011;2607;50.934;6.934;2022-07-22T03:15:38;8.63;;;7.70;;
5175;SDS011;2607;50.934;6.934;2022-07-22T03:18:04;12.07;;;8.93;;
5175;SDS011;2607;50.934;6.934;2022-07-22T03:20:29;18.07;;;9.43;;
5175;SDS011;2607;50.934;6.934;2022-07-22T03:22:55;11.60;;;8.70;;
5175;SDS011;2607;50.934;6.934;2022-07-22T03:25:21;11.93;;;7.87;;
5175;SDS011;2607;50.934;6.934;2022-07-22T03:27:46;12.63;;;8.67;;
5175;SDS011;2607;50.934;6.934;2022-07-22T03:30:12;13.50;;;8.47;;
5175;SDS011;2607;50.934;6.934;2022-07-22T03:32:38;12.40;;;8.30;;
5175;SDS011;2607;50.934;6.934;2022-07-22T03:35:03;13.30;;;7.20;;
5175;SDS011;2607;50.934;6.934;2022-07-22T03:37:30;12.73;;;7.60;;
5175;SDS011;2607;50.934;6.934;2022-07-22T03:39:55;8.70;;;7.60;;
5175;SDS011;2607;50.934;6.934;2022-07-22T03:42:21;16.17;;;9.07;;
5175;SDS011;2607;50.934;6.934;2022-07-22T03:44:46;14.03;;;8.30;;
5175;SDS011;2607;50.934;6.934;2022-07-22T03:47:16;13.57;;;7.03;;
5175;SDS011;2607;50.934;6.934;2022-07-22T03:49:43;14.53;;;8.37;;
5175;SDS011;2607;50.934;6.934;2022-07-22T03:52:09;16.37;;;9.93;;
5175;SDS011;2607;50.934;6.934;2022-07-22T03:54:34;13.40;;;7.80;;
5175;SDS011;2607;50.934;6.934;2022-07-22T03:57:00;11.87;;;7.80;;
5175;SDS011;2607;50.934;6.934;2022-07-22T03:59:25;19.80;;;11.20;;
5175;SDS011;2607;50.934;6.934;2022-07-22T04:01:51;10.47;;;7.60;;
5175;SDS011;2607;50.934;6.934;2022-07-22T04:04:16;10.47;;;7.53;;
5175;SDS011;2607;50.934;6.934;2022-07-22T04:06:42;10.13;;;7.57;;
5175;SDS011;2607;50.934;6.934;2022-07-22T04:09:08;13.30;;;7.70;;
5175;SDS011;2607;50.934;6.934;2022-07-22T04:11:33;11.73;;;7.57;;
5175;SDS011;2607;50.934;6.934;2022-07-22T04:13:59;8.97;;;7.13;;
5175;SDS011;2607;50.934;6.934;2022-07-22T04:16:25;12.20;;;7.37;;
5175;SDS011;2607;50.934;6.934;2022-07-22T04:18:50;12.13;;;8.50;;
5175;SDS011;2607;50.934;6.934;2022-07-22T04:21:16;9.70;;;7.30;;
5175;SDS011;2607;50.934;6.934;2022-07-22T04:23:41;9.80;;;7.37;;
5175;SDS011;2607;50.934;6.934;2022-07-22T04:26:07;11.27;;;7.37;;
5175;SDS011;2607;50.934;6.934;2022-07-22T04:28:33;10.80;;;7.70;;
5175;SDS011;2607;50.934;6.934;2022-07-22T04:31:00;11.33;;;8.13;;
5175;SDS011;2607;50.934;6.934;2022-07-22T04:33:27;11.77;;;7.80;;
5175;SDS011;2607;50.934;6.934;2022-07-22T04:35:52;12.27;;;8.50;;
5175;SDS011;2607;50.934;6.934;2022-07-22T04:38:18;8.63;;;7.67;;
5175;SDS011;2607;50.934;6.934;2022-07-22T04:40:43;9.50;;;7.57;;
5175;SDS011;2607;50.934;6.934;2022-07-22T04:43:09;10.13;;;7.23;;
5175;SDS011;2607;50.934;6.934;2022-07-22T04:45:34;14.83;;;7.63;;
5175;SDS011;2607;50.934;6.934;2022-07-22T04:48:00;15.83;;;7.70;;
5175;SDS011;2607;50.934;6.934;2022-07-22T04:50:25;9.37;;;7.17;;
5175;SDS011;2607;50.934;6.934;2022-07-22T04:52:51;13.43;;;7.03;;
5175;SDS011;2607;50.934;6.934;2022-07-22T04:55:16;14.93;;;6.70;;
5175;SDS011;2607;50.934;6.934;2022-07-22T04:57:42;8.80;;;6.60;;
5175;SDS011;2607;50.934;6.934;2022-07-22T05:00:08;11.73;;;7.30;;
5175;SDS011;2607;50.934;6.934;2022-07-22T05:02:34;10.20;;;7.30;;
5175;SDS011;2607;50.934;6.934;2022-07-22T05:05:00;13.63;;;8.20;;
5175;SDS011;2607;50.934;6.934;2022-07-22T05:07:25;10.20;;;7.17;;
5175;SDS011;2607;50.934;6.934;2022-07-22T05:09:51;15.97;;;7.70;;
5175;SDS011;2607;50.934;6.934;2022-07-22T05:12:16;11.33;;;7.17;;
5175;SDS011;2607;50.934;6.934;2022-07-22T05:14:42;9.30;;;6.60;;
5175;SDS011;2607;50.934;6.934;2022-07-22T05:17:11;10.90;;;7.10;;
5175;SDS011;2607;50.934;6.934;2022-07-22T05:19:37;10.27;;;7.37;;
5175;SDS011;2607;50.934;6.934;2022-07-22T05:22:05;13.33;;;7.03;;
5175;SDS011;2607;50.934;6.934;2022-07-22T05:24:34;13.83;;;7.27;;
5175;SDS011;2607;50.934;6.934;2022-07-22T05:27:00;9.67;;;7.77;;
5175;SDS011;2607;50.934;6.934;2022-07-22T05:29:26;17.20;;;7.20;;
5175;SDS011;2607;50.934;6.934;2022-07-22T05:31:51;18.47;;;8.20;;
5175;SDS011;2607;50.934;6.934;2022-07-22T05:34:17;10.60;;;8.00;;
5175;SDS011;2607;50.934;6.934;2022-07-22T05:36:42;17.23;;;7.80;;
5175;SDS011;2607;50.934;6.934;2022-07-22T05:39:08;8.20;;;7.30;;
5175;SDS011;2607;50.934;6.934;2022-07-22T05:41:34;8.97;;;7.40;;
5175;SDS011;2607;50.934;6.934;2022-07-22T05:43:59;12.00;;;8.40;;
5175;SDS011;2607;50.934;6.934;2022-07-22T05:46:25;18.77;;;8.57;;
5175;SDS011;2607;50.934;6.934;2022-07-22T05:48:50;10.77;;;7.90;;
5175;SDS011;2607;50.934;6.934;2022-07-22T05:51:16;15.63;;;8.87;;
5175;SDS011;2607;50.934;6.934;2022-07-22T05:53:42;16.00;;;10.80;;
5175;SDS011;2607;50.934;6.934;2022-07-22T05:56:08;15.83;;;9.40;;
5175;SDS011;2607;50.934;6.934;2022-07-22T05:58:36;12.83;;;8.37;;
5175;SDS011;2607;50.934;6.934;2022-07-22T06:01:06;16.30;;;8.67;;
5175;SDS011;2607;50.934;6.934;2022-07-22T06:03:32;10.43;;;8.50;;
5175;SDS011;2607;50.934;6.934;2022-07-22T06:05:57;21.00;;;9.40;;
5175;SDS011;2607;50.934;6.934;2022-07-22T06:08:23;11.13;;;9.30;;
5175;SDS011;2607;50.934;6.934;2022-07-22T06:10:49;12.93;;;8.30;;
5175;SDS011;2607;50.934;6.934;2022-07-22T06:13:14;12.30;;;9.00;;
5175;SDS011;2607;50.934;6.934;2022-07-22T06:15:40;13.30;;;8.30;;
5175;SDS011;2607;50.934;6.934;2022-07-22T06:18:06;10.97;;;8.03;;
5175;SDS011;2607;50.934;6.934;2022-07-22T06:20:31;10.83;;;9.23;;
5175;SDS011;2607;50.934;6.934;2022-07-22T06:22:57;14.80;;;10.50;;
5175;SDS011;2607;50.934;6.934;2022-07-22T06:25:22;15.20;;;9.77;;
5175;SDS011;2607;50.934;6.934;2022-07-22T06:27:48;13.73;;;9.13;;
5175;SDS011;2607;50.934;6.934;2022-07-22T06:30:13;12.80;;;8.50;;
5175;SDS011;2607;50.934;6.934;2022-07-22T06:32:39;13.60;;;8.37;;
5175;SDS011;2607;50.934;6.934;2022-07-22T06:35:05;12.90;;;9.83;;
5175;SDS011;2607;50.934;6.934;2022-07-22T06:37:31;10.90;;;8.10;;
5175;SDS011;2607;50.934;6.934;2022-07-22T06:39:56;12.93;;;9.53;;
5175;SDS011;2607;50.934;6.934;2022-07-22T06:42:22;9.97;;;8.90;;
5175;SDS011;2607;50.934;6.934;2022-07-22T06:44:48;11.30;;;9.93;;
5175;SDS011;2607;50.934;6.934;2022-07-22T06:47:14;13.77;;;10.07;;
5175;SDS011;2607;50.934;6.934;2022-07-22T06:49:39;17.27;;;10.30;;
5175;SDS011;2607;50.934;6.934;2022-07-22T06:52:05;12.53;;;10.13;;
5175;SDS011;2607;50.934;6.934;2022-07-22T06:54:31;9.60;;;8.53;;
5175;SDS011;2607;50.934;6.934;2022-07-22T06:56:56;15.50;;;9.83;;
5175;SDS011;2607;50.934;6.934;2022-07-22T06:59:23;10.77;;;8.17;;
5175;SDS011;2607;50.934;6.934;2022-07-22T07:01:49;9.80;;;8.23;;
5175;SDS011;2607;50.934;6.934;2022-07-22T07:04:14;9.07;;;5.53;;
5175;SDS011;2607;50.934;6.934;2022-07-22T07:06:40;9.50;;;5.70;;
5175;SDS011;2607;50.934;6.934;2022-07-22T07:09:06;9.60;;;6.87;;
5175;SDS011;2607;50.934;6.934;2022-07-22T07:11:32;6.23;;;5.27;;
5175;SDS011;2607;50.934;6.934;2022-07-22T07:13:58;8.30;;;5.27;;
5175;SDS011;2607;50.934;6.934;2022-07-22T07:16:24;8.80;;;6.67;;
5175;SDS011;2607;50.934;6.934;2022-07-22T07:18:49;9.93;;;5.30;;
5175;SDS011;2607;50.934;6.934;2022-07-22T07:21:15;6.53;;;4.90;;
5175;SDS011;2607;50.934;6.934;2022-07-22T07:23:40;9.30;;;4.20;;
5175;SDS011;2607;50.934;6.934;2022-07-22T07:26:06;7.00;;;4.60;;
5175;SDS011;2607;50.934;6.934;2022-07-22T07:28:32;5.57;;;5.03;;
5175;SDS011;2607;50.934;6.934;2022-07-22T07:30:57;9.13;;;4.97;;
5175;SDS011;2607;50.934;6.934;2022-07-22T07:33:23;9.67;;;7.53;;
5175;SDS011;2607;50.934;6.934;2022-07-22T07:35:48;7.83;;;4.77;;
5175;SDS011;2607;50.934;6.934;2022-07-22T07:38:14;4.80;;;4.40;;
5175;SDS011;2607;50.934;6.934;2022-07-22T07:40:40;8.93;;;4.80;;
5175;SDS011;2607;50.934;6.934;2022-07-22T07:43:06;7.80;;;5.07;;
5175;SDS011;2607;50.934;6.934;2022-07-22T07:45:31;6.33;;;5.30;;
5175;SDS011;2607;50.934;6.934;2022-07-22T07:47:58;6.40;;;4.80;;
5175;SDS011;2607;50.934;6.934;2022-07-22T07:50:24;5.97;;;4.50;;
5175;SDS011;2607;50.934;6.934;2022-07-22T07:52:50;6.33;;;4.50;;
5175;SDS011;2607;50.934;6.934;2022-07-22T07:55:16;15.53;;;10.80;;
5175;SDS011;2607;50.934;6.934;2022-07-22T07:57:41;5.80;;;5.27;;
5175;SDS011;2607;50.934;6.934;2022-07-22T08:00:09;6.40;;;4.30;;
5175;SDS011;2607;50.934;6.934;2022-07-22T08:02:36;5.53;;;5.00;;
5175;SDS011;2607;50.934;6.934;2022-07-22T08:05:03;8.23;;;6.20;;
5175;SDS011;2607;50.934;6.934;2022-07-22T08:07:30;6.33;;;4.20;;
5175;SDS011;2607;50.934;6.934;2022-07-22T08:09:56;8.13;;;4.60;;
5175;SDS011;2607;50.934;6.934;2022-07-22T08:12:21;5.27;;;4.33;;
5175;SDS011;2607;50.934;6.934;2022-07-22T08:14:47;6.00;;;4.57;;
5175;SDS011;2607;50.934;6.934;2022-07-22T08:17:12;5.27;;;4.80;;
5175;SDS011;2607;50.934;6.934;2022-07-22T08:19:38;11.07;;;5.30;;
5175;SDS011;2607;50.934;6.934;2022-07-22T08:22:04;9.63;;;7.67;;
5175;SDS011;2607;50.934;6.934;2022-07-22T08:24:29;10.70;;;6.17;;
5175;SDS011;2607;50.934;6.934;2022-07-22T08:26:55;7.47;;;5.43;;
5175;SDS011;2607;50.934;6.934;2022-07-22T08:29:20;7.03;;;5.47;;
5175;SDS011;2607;50.934;6.934;2022-07-22T08:31:46;7.67;;;5.70;;
5175;SDS011;2607;50.934;6.934;2022-07-22T08:34:12;10.33;;;6.57;;
5175;SDS011;2607;50.934;6.934;2022-07-22T08:36:37;5.70;;;5.00;;
5175;SDS011;2607;50.934;6.934;2022-07-22T08:39:04;8.73;;;5.97;;
5175;SDS011;2607;50.934;6.934;2022-07-22T08:41:33;13.73;;;6.30;;
5175;SDS011;2607;50.934;6.934;2022-07-22T08:44:00;9.03;;;6.77;;
5175;SDS011;2607;50.934;6.934;2022-07-22T08:46:28;17.00;;;9.37;;
5175;SDS011;2607;50.934;6.934;2022-07-22T08:48:54;7.67;;;6.40;;
5175;SDS011;2607;50.934;6.934;2022-07-22T08:51:20;6.97;;;6.27;;
5175;SDS011;2607;50.934;6.934;2022-07-22T08:53:45;7.47;;;6.30;;
5175;SDS011;2607;50.934;6.934;2022-07-22T08:56:14;6.50;;;5.67;;
5175;SDS011;2607;50.934;6.934;2022-07-22T08:58:40;7.73;;;6.60;;
5175;SDS011;2607;50.934;6.934;2022-07-22T09:01:07;8.50;;;6.70;;
5175;SDS011;2607;50.934;6.934;2022-07-22T09:03:34;11.30;;;6.17;;
5175;SDS011;2607;50.934;6.934;2022-07-22T09:06:14;7.63;;;5.97;;
5175;SDS011;2607;50.934;6.934;2022-07-22T09:09:03;7.80;;;7.00;;
5175;SDS011;2607;50.934;6.934;2022-07-22T09:11:30;11.90;;;7.43;;
5175;SDS011;2607;50.934;6.934;2022-07-22T09:13:57;11.10;;;7.40;;
5175;SDS011;2607;50.934;6.934;2022-07-22T09:19:13;8.30;;;7.10;;
5175;SDS011;2607;50.934;6.934;2022-07-22T09:21:43;8.77;;;7.50;;
5175;SDS011;2607;50.934;6.934;2022-07-22T09:24:33;8.07;;;7.30;;
5175;SDS011;2607;50.934;6.934;2022-07-22T09:26:59;38.63;;;24.57;;
5175;SDS011;2607;50.934;6.934;2022-07-22T09:29:24;11.77;;;7.63;;
5175;SDS011;2607;50.934;6.934;2022-07-22T09:31:51;11.80;;;7.90;;
5175;SDS011;2607;50.934;6.934;2022-07-22T09:34:35;8.67;;;7.77;;
5175;SDS011;2607;50.934;6.934;2022-07-22T09:37:01;9.73;;;8.40;;
5175;SDS011;2607;50.934;6.934;2022-07-22T09:39:30;9.83;;;8.83;;
5175;SDS011;2607;50.934;6.934;2022-07-22T09:42:01;9.43;;;7.67;;
5175;SDS011;2607;50.934;6.934;2022-07-22T09:44:30;10.97;;;7.00;;
5175;SDS011;2607;50.934;6.934;2022-07-22T09:46:56;11.60;;;8.40;;
5175;SDS011;2607;50.934;6.934;2022-07-22T09:49:35;9.30;;;7.20;;
5175;SDS011;2607;50.934;6.934;2022-07-22T09:52:04;9.67;;;8.77;;
5175;SDS011;2607;50.934;6.934;2022-07-22T09:54:29;8.40;;;7.70;;
5175;SDS011;2607;50.934;6.934;2022-07-22T09:56:56;13.80;;;10.27;;
5175;SDS011;2607;50.934;6.934;2022-07-22T09:59:22;12.47;;;8.70;;
5175;SDS011;2607;50.934;6.934;2022-07-22T10:01:49;8.77;;;7.87;;
5175;SDS011;2607;50.934;6.934;2022-07-22T10:04:16;12.50;;;10.07;;
5175;SDS011;2607;50.934;6.934;2022-07-22T10:06:44;11.27;;;9.67;;
5175;SDS011;2607;50.934;6.934;2022-07-22T10:09:12;50.83;;;25.30;;
5175;SDS011;2607;50.934;6.934;2022-07-22T10:11:41;18.40;;;9.33;;
5175;SDS011;2607;50.934;6.934;2022-07-22T10:14:11;11.50;;;9.97;;
5175;SDS011;2607;50.934;6.934;2022-07-22T10:16:41;15.10;;;10.60;;
5175;SDS011;2607;50.934;6.934;2022-07-22T10:19:07;11.33;;;10.03;;
5175;SDS011;2607;50.934;6.934;2022-07-22T10:21:33;10.40;;;8.93;;
5175;SDS011;2607;50.934;6.934;2022-07-22T10:24:06;12.27;;;10.80;;
5175;SDS011;2607;50.934;6.934;2022-07-22T10:26:46;12.63;;;10.70;;
5175;SDS011;2607;50.934;6.934;2022-07-22T10:29:31;16.20;;;11.40;;
5175;SDS011;2607;50.934;6.934;2022-07-22T10:34:42;10.33;;;9.23;;
5175;SDS011;2607;50.934;6.934;2022-07-22T10:40:09;10.90;;;8.83;;
5175;SDS011;2607;50.934;6.934;2022-07-22T10:45:46;10.27;;;8.20;;
5175;SDS011;2607;50.934;6.934;2022-07-22T10:50:49;12.07;;;9.90;;
5175;SDS011;2607;50.934;6.934;2022-07-22T11:01:05;10.33;;;9.30;;
5175;SDS011;2607;50.934;6.934;2022-07-22T11:03:33;16.10;;;9.73;;
5175;SDS011;2607;50.934;6.934;2022-07-22T11:08:45;9.20;;;8.23;;
5175;SDS011;2607;50.934;6.934;2022-07-22T11:11:14;9.33;;;8.33;;
5175;SDS011;2607;50.934;6.934;2022-07-22T11:13:41;12.40;;;8.60;;
5175;SDS011;2607;50.934;6.934;2022-07-22T11:16:22;12.17;;;10.97;;
5175;SDS011;2607;50.934;6.934;2022-07-22T11:18:52;10.23;;;9.10;;
5175;SDS011;2607;50.934;6.934;2022-07-22T11:21:20;10.60;;;8.57;;
5175;SDS011;2607;50.934;6.934;2022-07-22T11:23:49;9.20;;;8.40;;
5175;SDS011;2607;50.934;6.934;2022-07-22T11:26:17;10.23;;;9.13;;
5175;SDS011;2607;50.934;6.934;2022-07-22T11:28:46;10.27;;;9.17;;
5175;SDS011;2607;50.934;6.934;2022-07-22T11:31:16;9.40;;;8.40;;
5175;SDS011;2607;50.934;6.934;2022-07-22T11:33:42;10.47;;;9.50;;
5175;SDS011;2607;50.934;6.934;2022-07-22T11:36:09;10.37;;;9.27;;
5175;SDS011;2607;50.934;6.934;2022-07-22T11:38:39;10.57;;;9.43;;
5175;SDS011;2607;50.934;6.934;2022-07-22T11:41:12;13.03;;;10.10;;
5175;SDS011;2607;50.934;6.934;2022-07-22T11:43:44;12.90;;;9.70;;
5175;SDS011;2607;50.934;6.934;2022-07-22T11:46:11;13.63;;;12.23;;
5175;SDS011;2607;50.934;6.934;2022-07-22T11:48:38;9.70;;;8.70;;
5175;SDS011;2607;50.934;6.934;2022-07-22T11:51:05;15.20;;;12.03;;
5175;SDS011;2607;50.934;6.934;2022-07-22T11:53:31;10.33;;;9.30;;
5175;SDS011;2607;50.934;6.934;2022-07-22T11:55:58;13.83;;;11.57;;
5175;SDS011;2607;50.934;6.934;2022-07-22T11:58:43;12.80;;;9.40;;
5175;SDS011;2607;50.934;6.934;2022-07-22T12:01:14;12.60;;;10.20;;
5175;SDS011;2607;50.934;6.934;2022-07-22T12:03:45;12.33;;;10.40;;
5175;SDS011;2607;50.934;6.934;2022-07-22T12:06:31;10.87;;;9.77;;
5175;SDS011;2607;50.934;6.934;2022-07-22T12:09:08;14.73;;;12.87;;
5175;SDS011;2607;50.934;6.934;2022-07-22T12:11:34;12.20;;;10.97;;
5175;SDS011;2607;50.934;6.934;2022-07-22T12:14:13;21.90;;;16.13;;
5175;SDS011;2607;50.934;6.934;2022-07-22T12:19:35;12.23;;;10.47;;
5175;SDS011;2607;50.934;6.934;2022-07-22T12:22:05;11.27;;;10.17;;
5175;SDS011;2607;50.934;6.934;2022-07-22T12:29:40;12.00;;;10.77;;
5175;SDS011;2607;50.934;6.934;2022-07-22T12:32:15;13.63;;;12.23;;
5175;SDS011;2607;50.934;6.934;2022-07-22T12:34:55;13.47;;;11.10;;
5175;SDS011;2607;50.934;6.934;2022-07-22T12:37:26;12.83;;;11.50;;
5175;SDS011;2607;50.934;6.934;2022-07-22T12:39:56;13.33;;;10.10;;
5175;SDS011;2607;50.934;6.934;2022-07-22T12:42:34;12.10;;;10.77;;
5175;SDS011;2607;50.934;6.934;2022-07-22T12:45:12;11.27;;;9.70;;
5175;SDS011;2607;50.934;6.934;2022-07-22T12:52:58;14.30;;;12.17;;
5175;SDS011;2607;50.934;6.934;2022-07-22T12:55:27;12.40;;;11.20;;
5175;SDS011;2607;50.934;6.934;2022-07-22T12:57:53;13.87;;;11.70;;
5175;SDS011;2607;50.934;6.934;2022-07-22T13:00:20;12.80;;;11.37;;
5175;SDS011;2607;50.934;6.934;2022-07-22T13:02:48;13.97;;;11.97;;
5175;SDS011;2607;50.934;6.934;2022-07-22T13:05:14;16.73;;;13.10;;
5175;SDS011;2607;50.934;6.934;2022-07-22T13:07:41;26.10;;;19.57;;
5175;SDS011;2607;50.934;6.934;2022-07-22T13:10:07;11.80;;;10.60;;
5175;SDS011;2607;50.934;6.934;2022-07-22T13:12:33;12.97;;;9.80;;
5175;SDS011;2607;50.934;6.934;2022-07-22T13:15:00;13.70;;;11.27;;
5175;SDS011;2607;50.934;6.934;2022-07-22T13:17:26;21.40;;;15.23;;
5175;SDS011;2607;50.934;6.934;2022-07-22T13:19:51;23.93;;;17.87;;
5175;SDS011;2607;50.934;6.934;2022-07-22T13:22:17;12.43;;;10.97;;
5175;SDS011;2607;50.934;6.934;2022-07-22T13:24:43;12.20;;;10.80;;
5175;SDS011;2607;50.934;6.934;2022-07-22T13:27:08;11.17;;;9.90;;
5175;SDS011;2607;50.934;6.934;2022-07-22T13:29:34;16.10;;;12.87;;
5175;SDS011;2607;50.934;6.934;2022-07-22T13:32:00;13.03;;;11.10;;
5175;SDS011;2607;50.934;6.934;2022-07-22T13:34:25;14.30;;;11.90;;
5175;SDS011;2607;50.934;6.934;2022-07-22T13:36:51;18.77;;;11.90;;
5175;SDS011;2607;50.934;6.934;2022-07-22T13:39:16;12.17;;;10.87;;
5175;SDS011;2607;50.934;6.934;2022-07-22T13:41:42;12.03;;;10.57;;
5175;SDS011;2607;50.934;6.934;2022-07-22T13:44:08;11.60;;;10.40;;
5175;SDS011;2607;50.934;6.934;2022-07-22T13:46:36;13.30;;;11.90;;
5175;SDS011;2607;50.934;6.934;2022-07-22T13:49:02;14.80;;;11.63;;
5175;SDS011;2607;50.934;6.934;2022-07-22T13:51:28;19.33;;;11.23;;
5175;SDS011;2607;50.934;6.934;2022-07-22T13:53:54;12.30;;;11.00;;
5175;SDS011;2607;50.934;6.934;2022-07-22T13:56:19;14.03;;;11.40;;
5175;SDS011;2607;50.934;6.934;2022-07-22T13:58:45;25.73;;;12.00;;
5175;SDS011;2607;50.934;6.934;2022-07-22T14:01:11;12.73;;;11.40;;
5175;SDS011;2607;50.934;6.934;2022-07-22T14:03:36;14.60;;;12.50;;
5175;SDS011;2607;50.934;6.934;2022-07-22T14:06:03;15.53;;;11.23;;
5175;SDS011;2607;50.934;6.934;2022-07-22T14:08:29;19.27;;;12.60;;
5175;SDS011;2607;50.934;6.934;2022-07-22T14:10:56;13.97;;;11.40;;
5175;SDS011;2607;50.934;6.934;2022-07-22T14:13:22;13.30;;;10.83;;
5175;SDS011;2607;50.934;6.934;2022-07-22T14:15:47;15.40;;;11.30;;
5175;SDS011;2607;50.934;6.934;2022-07-22T14:18:13;14.17;;;11.80;;
5175;SDS011;2607;50.934;6.934;2022-07-22T14:20:38;12.90;;;10.97;;
5175;SDS011;2607;50.934;6.934;2022-07-22T14:23:05;14.03;;;10.30;;
5175;SDS011;2607;50.934;6.934;2022-07-22T14:25:34;13.67;;;10.60;;
5175;SDS011;2607;50.934;6.934;2022-07-22T14:28:02;14.60;;;11.97;;
5175;SDS011;2607;50.934;6.934;2022-07-22T14:30:28;21.90;;;16.53;;
5175;SDS011;2607;50.934;6.934;2022-07-22T14:32:54;14.17;;;12.37;;
5175;SDS011;2607;50.934;6.934;2022-07-22T14:35:20;17.37;;;15.50;;
5175;SDS011;2607;50.934;6.934;2022-07-22T14:37:46;15.47;;;12.23;;
5175;SDS011;2607;50.934;6.934;2022-07-22T14:40:12;13.07;;;10.50;;
5175;SDS011;2607;50.934;6.934;2022-07-22T14:42:38;14.63;;;10.67;;
5175;SDS011;2607;50.934;6.934;2022-07-22T14:45:04;13.53;;;10.07;;
5175;SDS011;2607;50.934;6.934;2022-07-22T14:47:36;13.23;;;11.40;;
5175;SDS011;2607;50.934;6.934;2022-07-22T14:50:03;11.60;;;10.40;;
5175;SDS011;2607;50.934;6.934;2022-07-22T14:52:32;13.93;;;10.83;;
5175;SDS011;2607;50.934;6.934;2022-07-22T14:54:57;14.13;;;10.90;;
5175;SDS011;2607;50.934;6.934;2022-07-22T14:57:23;13.63;;;10.93;;
5175;SDS011;2607;50.934;6.934;2022-07-22T14:59:48;13.70;;;11.40;;
5175;SDS011;2607;50.934;6.934;2022-07-22T15:02:14;23.73;;;18.27;;
5175;SDS011;2607;50.934;6.934;2022-07-22T15:04:40;17.03;;;14.03;;
5175;SDS011;2607;50.934;6.934;2022-07-22T15:07:05;29.93;;;22.70;;
5175;SDS011;2607;50.934;6.934;2022-07-22T15:09:31;12.27;;;10.00;;
5175;SDS011;2607;50.934;6.934;2022-07-22T15:11:56;23.03;;;11.47;;
5175;SDS011;2607;50.934;6.934;2022-07-22T15:14:22;13.43;;;12.03;;
5175;SDS011;2607;50.934;6.934;2022-07-22T15:16:48;11.30;;;9.47;;
5175;SDS011;2607;50.934;6.934;2022-07-22T15:19:13;13.43;;;10.87;;
5175;SDS011;2607;50.934;6.934;2022-07-22T15:21:39;14.23;;;10.13;;
5175;SDS011;2607;50.934;6.934;2022-07-22T15:24:04;11.10;;;9.90;;
5175;SDS011;2607;50.934;6.934;2022-07-22T15:26:30;13.17;;;11.70;;
5175;SDS011;2607;50.934;6.934;2022-07-22T15:28:56;18.83;;;13.93;;
5175;SDS011;2607;50.934;6.934;2022-07-22T15:31:22;11.87;;;10.17;;
5175;SDS011;2607;50.934;6.934;2022-07-22T15:33:47;18.90;;;14.37;;
5175;SDS011;2607;50.934;6.934;2022-07-22T15:36:14;14.00;;;11.77;;
5175;SDS011;2607;50.934;6.934;2022-07-22T15:38:40;20.40;;;14.60;;